createdAt,value
2022-10-30T00:01:03.866Z,99.90
2022-10-30T00:03:30.796Z,99.90
2022-10-30T00:13:22.719Z,99.90
2022-10-30T00:15:54.083Z,99.90
2022-10-30T00:18:21.207Z,99.90
2022-10-30T00:20:48.738Z,99.90
2022-10-30T00:23:15.801Z,99.90
2022-10-30T00:25:42.650Z,99.90
2022-10-30T00:28:09.401Z,99.90
2022-10-30T00:30:36.860Z,99.90
2022-10-30T00:33:04.543Z,99.90
2022-10-30T00:35:31.935Z,99.90
2022-10-30T00:38:00.890Z,99.90
2022-10-30T00:40:28.350Z,99.90
2022-10-30T00:45:22.384Z,99.90
2022-10-30T00:47:52.280Z,99.90
2022-10-30T00:53:05.359Z,99.90
2022-10-30T00:55:35.438Z,99.90
2022-10-30T00:58:07.750Z,99.90
2022-10-30T01:00:37.054Z,99.90
2022-10-30T01:03:05.184Z,99.90
2022-10-30T01:05:33.679Z,99.90
2022-10-30T01:10:28.333Z,99.90
2022-10-30T01:12:58.508Z,99.90
2022-10-30T01:15:35.760Z,99.90
2022-10-30T01:18:25.674Z,99.90
2022-10-30T01:21:11.930Z,99.90
2022-10-30T01:23:59.970Z,99.90
2022-10-30T01:26:30.275Z,99.90
2022-10-30T01:29:02.871Z,99.90
2022-10-30T01:31:44.073Z,99.90
2022-10-30T01:34:32.074Z,99.90
2022-10-30T01:37:03.763Z,99.90
2022-10-30T01:39:35.708Z,99.90
2022-10-30T01:42:28.083Z,99.90
2022-10-30T01:44:54.917Z,99.90
2022-10-30T01:47:42.256Z,99.90
2022-10-30T01:50:24.439Z,99.90
2022-10-30T01:53:13.797Z,99.90
2022-10-30T01:55:46.397Z,99.90
2022-10-30T01:58:18.959Z,99.90
2022-10-30T02:00:52.641Z,99.90
2022-10-30T02:03:19.831Z,99.90
2022-10-30T02:05:50.513Z,99.90
2022-10-30T02:08:17.899Z,99.90
2022-10-30T02:10:47.807Z,99.90
2022-10-30T02:13:14.880Z,99.90
2022-10-30T02:15:42.873Z,99.90
2022-10-30T02:18:09.649Z,99.90
2022-10-30T02:20:37.494Z,99.90
2022-10-30T02:25:32.534Z,99.90
2022-10-30T02:27:59.814Z,99.90
2022-10-30T02:30:26.997Z,99.90
2022-10-30T02:35:20.953Z,99.90
2022-10-30T02:37:49.015Z,99.90
2022-10-30T02:40:15.819Z,99.90
2022-10-30T02:45:10.228Z,99.90
2022-10-30T02:47:37.035Z,99.90
2022-10-30T02:50:04.133Z,99.90
2022-10-30T02:52:31.129Z,99.90
2022-10-30T02:54:57.869Z,99.90
2022-10-30T02:57:24.679Z,99.90
2022-10-30T02:59:51.404Z,99.90
2022-10-30T03:02:18.191Z,99.90
2022-10-30T03:04:44.954Z,99.90
2022-10-30T03:09:39.698Z,99.90
2022-10-30T03:12:06.710Z,99.90
2022-10-30T03:14:33.495Z,99.90
2022-10-30T03:17:00.224Z,99.90
2022-10-30T03:21:54.532Z,99.90
2022-10-30T03:24:21.349Z,99.90
2022-10-30T03:26:48.301Z,99.90
2022-10-30T03:31:42.249Z,99.90
2022-10-30T03:34:08.977Z,99.90
2022-10-30T03:36:35.898Z,99.90
2022-10-30T03:41:29.901Z,99.90
2022-10-30T03:43:56.602Z,99.90
2022-10-30T03:51:17.814Z,99.90
2022-10-30T03:53:44.550Z,99.90
2022-10-30T03:56:11.434Z,99.90
2022-10-30T04:01:06.995Z,99.90
2022-10-30T04:03:34.376Z,99.90
2022-10-30T04:06:01.292Z,99.90
2022-10-30T04:08:28.146Z,99.90
2022-10-30T04:10:55.049Z,99.90
2022-10-30T04:15:55.992Z,99.90
2022-10-30T04:18:24.697Z,99.90
2022-10-30T04:23:19.929Z,99.90
2022-10-30T04:25:47.323Z,99.90
2022-10-30T04:28:14.303Z,99.90
2022-10-30T04:30:41.191Z,99.90
2022-10-30T04:33:12.219Z,99.90
2022-10-30T04:35:39.932Z,99.90
2022-10-30T04:38:11.949Z,99.90
2022-10-30T04:40:40.548Z,99.90
2022-10-30T04:43:08.400Z,99.90
2022-10-30T04:45:35.997Z,99.90
2022-10-30T04:48:15.062Z,99.90
2022-10-30T04:50:43.377Z,99.90
2022-10-30T04:53:17.763Z,99.90
2022-10-30T04:55:45.041Z,99.90
2022-10-30T04:58:12.792Z,99.90
2022-10-30T05:08:01.335Z,99.90
2022-10-30T05:10:28.435Z,99.90
2022-10-30T05:15:22.420Z,99.90
2022-10-30T05:17:56.411Z,99.90
2022-10-30T05:22:58.709Z,99.90
2022-10-30T05:25:26.514Z,99.90
2022-10-30T05:28:04.519Z,99.90
2022-10-30T05:30:33.063Z,99.90
2022-10-30T05:33:08.008Z,99.90
2022-10-30T05:35:35.692Z,99.90
2022-10-30T05:38:05.682Z,99.90
2022-10-30T05:40:33.871Z,99.90
2022-10-30T05:45:28.393Z,99.90
2022-10-30T05:48:06.681Z,99.90
2022-10-30T05:50:34.295Z,99.90
2022-10-30T05:53:03.839Z,99.90
2022-10-30T05:55:30.880Z,99.90
2022-10-30T05:57:59.528Z,99.90
2022-10-30T06:00:28.633Z,99.90
2022-10-30T06:03:03.172Z,99.90
2022-10-30T06:05:31.581Z,99.90
2022-10-30T06:07:58.650Z,99.90
2022-10-30T06:10:26.537Z,99.90
2022-10-30T06:12:58.355Z,99.90
2022-10-30T06:15:25.874Z,99.90
2022-10-30T06:17:53.047Z,99.90
2022-10-30T06:20:22.131Z,99.90
2022-10-30T06:23:06.263Z,99.90
2022-10-30T06:25:40.365Z,99.90
2022-10-30T06:28:07.751Z,99.90
2022-10-30T06:30:34.615Z,99.90
2022-10-30T06:33:03.419Z,99.90
2022-10-30T06:35:30.772Z,99.90
2022-10-30T06:38:00.188Z,99.90
2022-10-30T06:40:27.794Z,99.90
2022-10-30T06:45:23.713Z,99.90
2022-10-30T06:47:50.665Z,99.90
2022-10-30T06:50:20.156Z,99.90
2022-10-30T06:52:48.255Z,99.90
2022-10-30T07:00:10.269Z,99.90
2022-10-30T07:05:04.884Z,99.90
2022-10-30T07:07:31.772Z,99.90
2022-10-30T07:09:58.484Z,99.90
2022-10-30T07:14:52.396Z,99.90
2022-10-30T07:29:34.930Z,88.80
2022-10-30T07:34:30.820Z,86.80
2022-10-30T07:36:57.972Z,86.30
2022-10-30T07:39:24.964Z,86.30
2022-10-30T07:41:51.700Z,83.60
2022-10-30T07:46:45.636Z,82.10
2022-10-30T07:49:12.364Z,82.10
2022-10-30T07:54:06.237Z,82.50
2022-10-30T07:56:32.950Z,81.60
2022-10-30T07:58:59.679Z,79.60
2022-10-30T08:01:26.486Z,79.10
2022-10-30T08:03:53.332Z,78.00
2022-10-30T08:06:23.035Z,77.50
2022-10-30T08:08:53.110Z,77.60
2022-10-30T08:11:19.960Z,75.50
2022-10-30T08:13:46.931Z,75.10
2022-10-30T08:16:13.695Z,75.10
2022-10-30T08:18:42.535Z,74.70
2022-10-30T08:21:10.106Z,75.10
2022-10-30T08:23:37.057Z,74.10
2022-10-30T08:26:04.193Z,72.90
2022-10-30T08:28:32.914Z,73.30
2022-10-30T08:31:01.233Z,72.80
2022-10-30T08:33:28.417Z,72.10
2022-10-30T08:35:57.117Z,72.70
2022-10-30T08:38:24.143Z,73.60
2022-10-30T08:40:51.014Z,73.00
2022-10-30T08:43:17.913Z,72.10
2022-10-30T08:45:44.862Z,71.80
2022-10-30T08:48:13.898Z,72.60
2022-10-30T08:50:41.246Z,71.10
2022-10-30T08:53:13.691Z,70.60
2022-10-30T08:55:40.985Z,69.50
2022-10-30T08:58:07.840Z,68.80
2022-10-30T09:00:35.512Z,67.10
2022-10-30T09:03:02.920Z,68.30
2022-10-30T09:05:30.099Z,68.10
2022-10-30T09:08:01.697Z,68.00
2022-10-30T09:10:29.481Z,68.70
2022-10-30T09:12:57.834Z,68.60
2022-10-30T09:15:25.499Z,67.90
2022-10-30T09:18:00.136Z,69.30
2022-10-30T09:20:27.861Z,74.10
2022-10-30T09:22:55.324Z,76.00
2022-10-30T09:25:22.307Z,73.80
2022-10-30T09:27:49.156Z,70.90
2022-10-30T09:30:15.957Z,70.80
2022-10-30T09:32:42.672Z,68.60
2022-10-30T09:35:09.533Z,68.90
2022-10-30T09:37:37.528Z,66.80
2022-10-30T09:40:05.647Z,65.30
2022-10-30T09:42:50.989Z,65.30
2022-10-30T09:45:43.314Z,67.50
2022-10-30T09:48:30.494Z,67.50
2022-10-30T09:51:19.545Z,69.00
2022-10-30T09:54:05.467Z,69.00
2022-10-30T09:57:01.247Z,67.90
2022-10-30T09:59:29.185Z,67.30
2022-10-30T10:02:08.059Z,67.60
2022-10-30T10:04:43.380Z,69.30
2022-10-30T10:07:22.263Z,69.40
2022-10-30T10:09:53.460Z,69.00
2022-10-30T10:12:38.625Z,70.60
2022-10-30T10:15:31.055Z,68.90
2022-10-30T10:18:01.413Z,67.40
2022-10-30T10:20:37.045Z,66.40
2022-10-30T10:23:29.331Z,68.40
2022-10-30T10:26:00.389Z,69.10
2022-10-30T10:28:27.077Z,67.80
2022-10-30T10:31:04.932Z,67.70
2022-10-30T10:34:03.090Z,66.40
2022-10-30T10:36:46.479Z,64.70
2022-10-30T10:39:42.380Z,64.50
2022-10-30T10:42:52.686Z,64.30
2022-10-30T10:45:46.751Z,64.50
2022-10-30T10:48:34.452Z,63.70
2022-10-30T10:51:15.531Z,63.20
2022-10-30T10:53:53.011Z,62.00
2022-10-30T10:56:25.389Z,62.30
2022-10-30T10:58:58.115Z,63.50
2022-10-30T11:01:39.759Z,63.60
2022-10-30T11:04:24.226Z,63.50
2022-10-30T11:06:54.186Z,62.90
2022-10-30T11:09:22.972Z,62.00
2022-10-30T11:11:52.386Z,61.90
2022-10-30T11:14:23.838Z,63.30
2022-10-30T11:17:10.960Z,63.90
2022-10-30T11:19:37.759Z,66.00
2022-10-30T11:22:20.592Z,67.00
2022-10-30T11:24:47.384Z,66.80
2022-10-30T11:27:23.455Z,67.20
2022-10-30T11:30:01.886Z,67.50
2022-10-30T11:32:31.447Z,67.90
2022-10-30T11:35:10.137Z,67.10
2022-10-30T11:37:39.323Z,65.00
2022-10-30T11:40:12.160Z,65.20
2022-10-30T11:42:41.746Z,64.00
2022-10-30T11:45:26.689Z,64.70
2022-10-30T11:47:58.266Z,64.40
2022-10-30T11:50:30.704Z,64.60
2022-10-30T11:53:13.120Z,65.90
2022-10-30T11:55:46.048Z,67.00
2022-10-30T11:58:24.083Z,66.70
2022-10-30T12:01:06.908Z,67.30
2022-10-30T12:03:41.800Z,68.60
2022-10-30T12:06:20.472Z,68.70
2022-10-30T12:09:19.721Z,68.30
2022-10-30T12:11:47.191Z,68.70
2022-10-30T12:14:18.989Z,68.00
2022-10-30T12:16:56.935Z,68.70
2022-10-30T12:19:25.590Z,69.70
2022-10-30T12:21:54.491Z,70.00
2022-10-30T12:24:43.703Z,69.80
2022-10-30T12:27:19.676Z,70.00
2022-10-30T12:30:13.504Z,70.10
2022-10-30T12:33:06.197Z,69.80
2022-10-30T12:35:53.224Z,70.10
2022-10-30T12:38:46.492Z,71.50
2022-10-30T12:41:25.091Z,72.40
2022-10-30T12:43:59.528Z,72.50
2022-10-30T12:46:36.489Z,72.00
2022-10-30T12:49:15.234Z,72.50
2022-10-30T12:52:02.753Z,71.70
2022-10-30T12:54:48.051Z,72.80
2022-10-30T12:57:26.013Z,73.30
2022-10-30T13:00:07.521Z,75.50
2022-10-30T13:02:46.880Z,75.10
2022-10-30T13:05:23.019Z,74.60
2022-10-30T13:07:58.361Z,74.90
2022-10-30T13:10:34.191Z,75.10
2022-10-30T13:13:33.955Z,74.80
2022-10-30T13:16:06.553Z,74.80
2022-10-30T13:18:34.083Z,75.70
2022-10-30T13:21:04.264Z,75.20
2022-10-30T13:23:48.357Z,76.10
2022-10-30T13:26:39.892Z,76.30
2022-10-30T13:29:31.697Z,77.50
2022-10-30T13:32:40.638Z,78.50
2022-10-30T13:35:29.073Z,78.50
2022-10-30T13:37:59.053Z,79.70
2022-10-30T13:40:44.822Z,79.80
2022-10-30T13:43:29.875Z,78.50
2022-10-30T13:46:27.081Z,78.50
2022-10-30T13:49:06.230Z,78.00
2022-10-30T13:51:47.890Z,77.90
2022-10-30T13:54:28.519Z,77.90
2022-10-30T13:56:56.780Z,78.10
2022-10-30T13:59:36.844Z,77.60
2022-10-30T14:02:31.517Z,77.00
2022-10-30T14:05:12.890Z,78.00
2022-10-30T14:07:51.636Z,78.30
2022-10-30T14:10:48.137Z,79.40
2022-10-30T14:13:28.336Z,79.30
2022-10-30T14:16:04.557Z,79.80
2022-10-30T14:18:31.291Z,80.20
2022-10-30T14:21:11.001Z,80.90
2022-10-30T14:23:38.319Z,81.90
2022-10-30T14:26:12.715Z,82.70
2022-10-30T14:28:50.947Z,82.90
2022-10-30T14:31:20.070Z,83.70
2022-10-30T14:33:50.921Z,83.40
2022-10-30T14:36:20.590Z,83.80
2022-10-30T14:39:10.488Z,84.60
2022-10-30T14:42:05.108Z,85.30
2022-10-30T14:44:50.112Z,85.10
2022-10-30T14:47:33.359Z,85.80
2022-10-30T14:50:17.102Z,86.60
2022-10-30T14:52:59.824Z,85.90
2022-10-30T14:55:50.739Z,86.10
2022-10-30T14:58:29.413Z,86.60
2022-10-30T15:01:20.516Z,86.30
2022-10-30T15:04:22.421Z,87.00
2022-10-30T15:07:20.840Z,87.20
2022-10-30T15:10:06.793Z,88.40
2022-10-30T15:12:42.181Z,89.10
2022-10-30T15:15:15.280Z,90.20
2022-10-30T15:17:48.443Z,90.50
2022-10-30T15:20:24.847Z,89.80
2022-10-30T15:23:19.324Z,89.90
2022-10-30T15:25:52.341Z,89.40
2022-10-30T15:31:02.584Z,89.90
2022-10-30T15:33:37.803Z,90.00
2022-10-30T15:36:05.605Z,90.30
2022-10-30T15:38:32.661Z,90.60
2022-10-30T15:41:02.673Z,90.20
2022-10-30T15:43:35.553Z,90.80
2022-10-30T15:46:08.258Z,92.00
2022-10-30T15:48:35.892Z,93.00
2022-10-30T15:51:06.485Z,93.00
2022-10-30T15:53:33.139Z,93.30
2022-10-30T15:56:00.261Z,92.60
2022-10-30T15:58:27.464Z,92.60
2022-10-30T16:01:00.447Z,92.80
2022-10-30T16:03:28.542Z,93.20
2022-10-30T16:06:17.612Z,93.10
2022-10-30T16:08:46.830Z,93.20
2022-10-30T16:11:14.686Z,93.40
2022-10-30T16:13:42.528Z,93.30
2022-10-30T16:16:17.225Z,93.60
2022-10-30T16:18:44.530Z,93.90
2022-10-30T16:21:16.453Z,94.30
2022-10-30T16:23:50.291Z,94.50
2022-10-30T16:26:37.785Z,94.70
2022-10-30T16:29:21.196Z,95.30
2022-10-30T16:31:50.119Z,95.10
2022-10-30T16:34:26.454Z,96.20
2022-10-30T16:36:54.444Z,96.10
2022-10-30T16:39:21.971Z,95.70
2022-10-30T16:41:49.133Z,95.60
2022-10-30T16:44:33.528Z,96.00
2022-10-30T16:47:00.290Z,96.00
2022-10-30T16:49:31.376Z,96.30
2022-10-30T16:52:02.305Z,96.30
2022-10-30T16:54:36.553Z,96.30
2022-10-30T16:57:07.637Z,96.80
2022-10-30T16:59:38.941Z,97.10
2022-10-30T17:02:18.820Z,97.10
2022-10-30T17:04:52.466Z,96.40
2022-10-30T17:07:25.446Z,96.20
2022-10-30T17:09:55.609Z,96.70
2022-10-30T17:12:27.698Z,96.80
2022-10-30T17:15:13.075Z,97.00
2022-10-30T17:17:41.823Z,96.90
2022-10-30T17:20:21.831Z,96.40
2022-10-30T17:23:06.142Z,96.50
2022-10-30T17:25:38.583Z,96.90
2022-10-30T17:28:05.821Z,97.10
2022-10-30T17:30:35.411Z,97.40
2022-10-30T17:33:22.207Z,97.60
2022-10-30T17:35:49.432Z,97.60
2022-10-30T17:38:16.495Z,97.10
2022-10-30T17:40:43.468Z,97.10
2022-10-30T17:43:17.021Z,97.50
2022-10-30T17:45:44.467Z,97.80
2022-10-30T17:48:16.632Z,97.60
2022-10-30T17:50:44.652Z,97.70
2022-10-30T17:53:21.864Z,97.70
2022-10-30T17:55:59.698Z,98.10
2022-10-30T17:58:26.451Z,98.40
2022-10-30T18:00:53.273Z,98.20
2022-10-30T18:03:20.150Z,98.00
2022-10-30T18:05:47.567Z,98.10
2022-10-30T18:08:14.320Z,98.10
2022-10-30T18:13:11.906Z,98.00
2022-10-30T18:15:41.224Z,97.80
2022-10-30T18:20:35.441Z,97.60
2022-10-30T18:23:02.689Z,97.60
2022-10-30T18:25:35.867Z,98.30
2022-10-30T18:28:02.990Z,98.10
2022-10-30T18:35:31.399Z,98.50
2022-10-30T18:40:26.299Z,99.20
2022-10-30T18:45:29.631Z,98.80
2022-10-30T18:47:58.060Z,98.50
2022-10-30T18:50:25.287Z,98.90
2022-10-30T18:57:47.008Z,98.30
2022-10-30T19:00:16.463Z,98.90
2022-10-30T19:05:32.305Z,99.80
2022-10-30T19:08:01.463Z,99.90
2022-10-30T19:10:30.629Z,99.60
2022-10-30T19:13:15.566Z,99.60
2022-10-30T19:15:46.339Z,99.50
2022-10-30T19:18:13.943Z,99.90
2022-10-30T19:21:03.335Z,99.90
2022-10-30T19:30:50.491Z,99.90
2022-10-30T19:33:18.945Z,99.90
2022-10-30T19:35:46.411Z,99.90
2022-10-30T19:40:41.266Z,99.90
2022-10-30T19:48:24.855Z,99.90
2022-10-30T20:10:50.528Z,99.90
2022-10-30T20:13:17.892Z,99.90
2022-10-30T20:16:16.899Z,99.90
2022-10-30T20:23:52.640Z,99.90
2022-10-30T20:26:28.161Z,99.90
2022-10-30T20:28:55.508Z,99.90
2022-10-30T20:31:22.437Z,99.90
2022-10-30T20:41:23.494Z,99.90
2022-10-30T20:43:50.596Z,99.90
2022-10-30T20:46:18.286Z,99.90
2022-10-30T20:51:14.496Z,99.80
2022-10-30T20:53:41.417Z,99.90
2022-10-30T20:56:08.274Z,99.90
2022-10-30T20:58:35.174Z,99.70
2022-10-30T21:05:58.640Z,98.60
2022-10-30T21:08:26.663Z,97.90
2022-10-30T21:14:47.534Z,97.90
2022-10-30T21:17:14.689Z,98.10
2022-10-30T21:22:11.716Z,98.30
2022-10-30T21:24:38.859Z,98.30
2022-10-30T21:27:06.184Z,97.90
2022-10-30T21:29:35.143Z,97.90
2022-10-30T21:36:56.362Z,99.00
2022-10-30T21:41:50.324Z,99.60
2022-10-30T21:46:44.228Z,98.80
2022-10-30T21:49:17.893Z,98.50
2022-10-30T21:51:45.624Z,98.50
2022-10-30T21:54:12.604Z,99.80
2022-10-30T22:01:36.208Z,98.90
2022-10-30T23:00:54.624Z,99.90
2022-10-30T23:03:21.332Z,99.90
2022-10-30T23:05:59.443Z,99.90
2022-10-30T23:08:26.791Z,99.90
2022-10-30T23:10:54.394Z,99.90
2022-10-30T23:15:48.865Z,99.90
2022-10-30T23:18:16.103Z,99.90
2022-10-30T23:20:44.158Z,99.80
2022-10-30T23:23:11.026Z,99.80
2022-10-30T23:25:38.306Z,99.60
2022-10-30T23:28:09.890Z,99.40
2022-10-30T23:30:37.654Z,99.10
2022-10-30T23:33:04.942Z,99.50
2022-10-30T23:37:58.780Z,99.10
2022-10-30T23:42:55.797Z,99.90
2022-10-30T23:45:22.988Z,99.90
2022-10-30T23:47:49.714Z,99.90
2022-10-30T23:50:16.567Z,99.90
2022-10-30T23:52:43.355Z,99.90
2022-10-30T23:55:10.352Z,99.90
2022-10-30T23:57:37.119Z,99.90
